sensor_id;sensor_type;location;lat;lon;timestamp;P1;durP1;ratioP1;P2;durP2;ratioP2
21754;SDS011;11039;50.028;19.938;2023-02-19T00:03:58;0.13;;;0.10;;
21754;SDS011;11039;50.028;19.938;2023-02-19T00:06:25;0.30;;;0.20;;
21754;SDS011;11039;50.028;19.938;2023-02-19T00:08:51;1.58;;;0.17;;
21754;SDS011;11039;50.028;19.938;2023-02-19T00:11:18;0.10;;;0.10;;
21754;SDS011;11039;50.028;19.938;2023-02-19T00:13:46;0.30;;;0.10;;
21754;SDS011;11039;50.028;19.938;2023-02-19T00:16:16;0.60;;;0.50;;
21754;SDS011;11039;50.028;19.938;2023-02-19T00:18:43;2.03;;;0.80;;
21754;SDS011;11039;50.028;19.938;2023-02-19T00:21:09;2.25;;;0.75;;
21754;SDS011;11039;50.028;19.938;2023-02-19T00:23:35;1.70;;;1.10;;
21754;SDS011;11039;50.028;19.938;2023-02-19T00:26:02;2.33;;;1.00;;
21754;SDS011;11039;50.028;19.938;2023-02-19T00:28:28;1.08;;;0.60;;
21754;SDS011;11039;50.028;19.938;2023-02-19T00:30:54;1.02;;;0.30;;
21754;SDS011;11039;50.028;19.938;2023-02-19T00:33:21;1.20;;;0.40;;
21754;SDS011;11039;50.028;19.938;2023-02-19T00:35:47;0.40;;;0.30;;
21754;SDS011;11039;50.028;19.938;2023-02-19T00:38:13;1.05;;;0.40;;
21754;SDS011;11039;50.028;19.938;2023-02-19T00:40:39;1.25;;;0.43;;
21754;SDS011;11039;50.028;19.938;2023-02-19T00:43:05;2.38;;;0.40;;
21754;SDS011;11039;50.028;19.938;2023-02-19T00:45:31;0.55;;;0.30;;
21754;SDS011;11039;50.028;19.938;2023-02-19T00:47:58;2.67;;;0.30;;
21754;SDS011;11039;50.028;19.938;2023-02-19T00:50:25;1.77;;;0.60;;
21754;SDS011;11039;50.028;19.938;2023-02-19T00:52:51;1.98;;;0.60;;
21754;SDS011;11039;50.028;19.938;2023-02-19T00:55:17;5.88;;;0.50;;
21754;SDS011;11039;50.028;19.938;2023-02-19T00:57:43;1.52;;;0.50;;
21754;SDS011;11039;50.028;19.938;2023-02-19T01:00:09;3.30;;;0.52;;
21754;SDS011;11039;50.028;19.938;2023-02-19T01:02:35;1.42;;;0.50;;
21754;SDS011;11039;50.028;19.938;2023-02-19T01:05:01;1.85;;;0.77;;
21754;SDS011;11039;50.028;19.938;2023-02-19T01:07:27;1.95;;;0.65;;
21754;SDS011;11039;50.028;19.938;2023-02-19T01:09:53;1.48;;;0.80;;
21754;SDS011;11039;50.028;19.938;2023-02-19T01:12:19;1.65;;;0.65;;
21754;SDS011;11039;50.028;19.938;2023-02-19T01:14:45;3.00;;;0.60;;
21754;SDS011;11039;50.028;19.938;2023-02-19T01:17:11;1.30;;;0.60;;
21754;SDS011;11039;50.028;19.938;2023-02-19T01:19:37;1.70;;;0.63;;
21754;SDS011;11039;50.028;19.938;2023-02-19T01:22:04;1.70;;;0.68;;
21754;SDS011;11039;50.028;19.938;2023-02-19T01:24:30;1.55;;;0.65;;
21754;SDS011;11039;50.028;19.938;2023-02-19T01:26:56;2.78;;;0.77;;
21754;SDS011;11039;50.028;19.938;2023-02-19T01:29:22;1.75;;;0.63;;
21754;SDS011;11039;50.028;19.938;2023-02-19T01:31:48;1.27;;;0.77;;
21754;SDS011;11039;50.028;19.938;2023-02-19T01:34:14;1.85;;;0.60;;
21754;SDS011;11039;50.028;19.938;2023-02-19T01:36:40;1.42;;;0.60;;
21754;SDS011;11039;50.028;19.938;2023-02-19T01:39:06;1.13;;;0.50;;
21754;SDS011;11039;50.028;19.938;2023-02-19T01:41:34;1.30;;;0.65;;
21754;SDS011;11039;50.028;19.938;2023-02-19T01:44:01;1.02;;;0.50;;
21754;SDS011;11039;50.028;19.938;2023-02-19T01:48:54;0.75;;;0.40;;
21754;SDS011;11039;50.028;19.938;2023-02-19T01:51:21;0.90;;;0.40;;
21754;SDS011;11039;50.028;19.938;2023-02-19T01:53:50;0.80;;;0.50;;
21754;SDS011;11039;50.028;19.938;2023-02-19T01:56:19;1.33;;;0.80;;
21754;SDS011;11039;50.028;19.938;2023-02-19T01:58:45;0.85;;;0.60;;
21754;SDS011;11039;50.028;19.938;2023-02-19T02:01:12;2.17;;;0.50;;
21754;SDS011;11039;50.028;19.938;2023-02-19T02:03:39;1.05;;;0.50;;
21754;SDS011;11039;50.028;19.938;2023-02-19T02:08:38;1.15;;;0.50;;
21754;SDS011;11039;50.028;19.938;2023-02-19T02:11:23;1.40;;;0.60;;
21754;SDS011;11039;50.028;19.938;2023-02-19T02:13:49;0.70;;;0.70;;
21754;SDS011;11039;50.028;19.938;2023-02-19T02:16:18;1.02;;;0.63;;
21754;SDS011;11039;50.028;19.938;2023-02-19T02:29:43;1.27;;;0.63;;
21754;SDS011;11039;50.028;19.938;2023-02-19T02:32:11;1.50;;;0.68;;
21754;SDS011;11039;50.028;19.938;2023-02-19T02:34:46;0.70;;;0.50;;
21754;SDS011;11039;50.028;19.938;2023-02-19T02:37:13;0.80;;;0.60;;
21754;SDS011;11039;50.028;19.938;2023-02-19T02:39:40;2.25;;;0.73;;
21754;SDS011;11039;50.028;19.938;2023-02-19T02:42:06;1.50;;;0.70;;
21754;SDS011;11039;50.028;19.938;2023-02-19T02:44:51;1.00;;;0.50;;
21754;SDS011;11039;50.028;19.938;2023-02-19T02:47:37;0.93;;;0.60;;
21754;SDS011;11039;50.028;19.938;2023-02-19T02:50:06;1.45;;;0.70;;
21754;SDS011;11039;50.028;19.938;2023-02-19T02:52:34;0.98;;;0.50;;
21754;SDS011;11039;50.028;19.938;2023-02-19T02:55:20;1.63;;;0.60;;
21754;SDS011;11039;50.028;19.938;2023-02-19T02:57:47;1.05;;;0.50;;
21754;SDS011;11039;50.028;19.938;2023-02-19T03:00:13;1.13;;;0.60;;
21754;SDS011;11039;50.028;19.938;2023-02-19T03:02:39;1.27;;;0.65;;
21754;SDS011;11039;50.028;19.938;2023-02-19T03:05:20;0.50;;;0.40;;
21754;SDS011;11039;50.028;19.938;2023-02-19T03:08:09;0.82;;;0.60;;
21754;SDS011;11039;50.028;19.938;2023-02-19T03:10:40;0.85;;;0.50;;
21754;SDS011;11039;50.028;19.938;2023-02-19T03:13:29;0.85;;;0.55;;
21754;SDS011;11039;50.028;19.938;2023-02-19T03:16:23;0.88;;;0.70;;
21754;SDS011;11039;50.028;19.938;2023-02-19T03:19:10;1.20;;;0.60;;
21754;SDS011;11039;50.028;19.938;2023-02-19T03:21:54;0.60;;;0.50;;
21754;SDS011;11039;50.028;19.938;2023-02-19T03:24:22;0.82;;;0.57;;
21754;SDS011;11039;50.028;19.938;2023-02-19T03:27:08;1.27;;;0.70;;
21754;SDS011;11039;50.028;19.938;2023-02-19T03:29:36;0.75;;;0.50;;
21754;SDS011;11039;50.028;19.938;2023-02-19T03:32:04;0.80;;;0.60;;
21754;SDS011;11039;50.028;19.938;2023-02-19T03:34:33;0.80;;;0.50;;
21754;SDS011;11039;50.028;19.938;2023-02-19T03:37:02;1.00;;;0.68;;
21754;SDS011;11039;50.028;19.938;2023-02-19T03:39:31;0.70;;;0.50;;
21754;SDS011;11039;50.028;19.938;2023-02-19T03:41:59;0.90;;;0.60;;
21754;SDS011;11039;50.028;19.938;2023-02-19T03:49:41;1.02;;;0.60;;
21754;SDS011;11039;50.028;19.938;2023-02-19T03:52:14;0.98;;;0.47;;
21754;SDS011;11039;50.028;19.938;2023-02-19T03:54:50;1.30;;;0.60;;
21754;SDS011;11039;50.028;19.938;2023-02-19T04:04:50;1.10;;;0.60;;
21754;SDS011;11039;50.028;19.938;2023-02-19T04:07:20;0.98;;;0.55;;
21754;SDS011;11039;50.028;19.938;2023-02-19T04:09:47;0.98;;;0.68;;
21754;SDS011;11039;50.028;19.938;2023-02-19T04:12:15;1.15;;;0.60;;
21754;SDS011;11039;50.028;19.938;2023-02-19T04:14:46;0.90;;;0.60;;
21754;SDS011;11039;50.028;19.938;2023-02-19T04:17:22;0.85;;;0.55;;
21754;SDS011;11039;50.028;19.938;2023-02-19T04:19:49;1.10;;;0.70;;
21754;SDS011;11039;50.028;19.938;2023-02-19T04:22:16;1.08;;;0.50;;
21754;SDS011;11039;50.028;19.938;2023-02-19T04:24:44;0.70;;;0.50;;
21754;SDS011;11039;50.028;19.938;2023-02-19T04:27:12;1.38;;;0.57;;
21754;SDS011;11039;50.028;19.938;2023-02-19T04:29:38;0.85;;;0.52;;
21754;SDS011;11039;50.028;19.938;2023-02-19T04:32:04;2.47;;;0.90;;
21754;SDS011;11039;50.028;19.938;2023-02-19T04:34:30;0.90;;;0.60;;
21754;SDS011;11039;50.028;19.938;2023-02-19T04:36:57;1.08;;;0.60;;
21754;SDS011;11039;50.028;19.938;2023-02-19T04:39:23;1.35;;;0.70;;
21754;SDS011;11039;50.028;19.938;2023-02-19T04:41:49;0.88;;;0.70;;
21754;SDS011;11039;50.028;19.938;2023-02-19T04:44:15;0.80;;;0.60;;
21754;SDS011;11039;50.028;19.938;2023-02-19T04:46:41;1.45;;;0.60;;
21754;SDS011;11039;50.028;19.938;2023-02-19T04:49:07;1.13;;;0.50;;
21754;SDS011;11039;50.028;19.938;2023-02-19T04:51:33;1.15;;;0.68;;
21754;SDS011;11039;50.028;19.938;2023-02-19T04:53:59;0.80;;;0.60;;
21754;SDS011;11039;50.028;19.938;2023-02-19T04:56:25;1.45;;;0.60;;
21754;SDS011;11039;50.028;19.938;2023-02-19T04:58:51;0.85;;;0.60;;
21754;SDS011;11039;50.028;19.938;2023-02-19T05:01:17;0.93;;;0.60;;
21754;SDS011;11039;50.028;19.938;2023-02-19T05:03:43;0.82;;;0.60;;
21754;SDS011;11039;50.028;19.938;2023-02-19T05:06:10;0.75;;;0.60;;
21754;SDS011;11039;50.028;19.938;2023-02-19T05:08:37;1.05;;;0.60;;
21754;SDS011;11039;50.028;19.938;2023-02-19T05:11:03;3.42;;;0.55;;
21754;SDS011;11039;50.028;19.938;2023-02-19T05:13:30;0.52;;;0.43;;
21754;SDS011;11039;50.028;19.938;2023-02-19T05:15:57;0.90;;;0.60;;
21754;SDS011;11039;50.028;19.938;2023-02-19T05:18:23;1.55;;;0.70;;
21754;SDS011;11039;50.028;19.938;2023-02-19T05:20:50;1.88;;;0.50;;
21754;SDS011;11039;50.028;19.938;2023-02-19T05:23:16;0.95;;;0.63;;
21754;SDS011;11039;50.028;19.938;2023-02-19T05:25:42;1.52;;;0.90;;
21754;SDS011;11039;50.028;19.938;2023-02-19T05:28:08;0.98;;;0.63;;
21754;SDS011;11039;50.028;19.938;2023-02-19T05:30:49;1.10;;;0.57;;
21754;SDS011;11039;50.028;19.938;2023-02-19T05:33:16;1.20;;;0.80;;
21754;SDS011;11039;50.028;19.938;2023-02-19T05:35:43;1.20;;;0.60;;
21754;SDS011;11039;50.028;19.938;2023-02-19T05:38:10;2.25;;;0.60;;
21754;SDS011;11039;50.028;19.938;2023-02-19T05:40:36;0.88;;;0.70;;
21754;SDS011;11039;50.028;19.938;2023-02-19T05:43:02;1.80;;;0.80;;
21754;SDS011;11039;50.028;19.938;2023-02-19T05:45:29;0.70;;;0.60;;
21754;SDS011;11039;50.028;19.938;2023-02-19T05:47:55;1.00;;;0.60;;
21754;SDS011;11039;50.028;19.938;2023-02-19T05:50:21;1.00;;;0.50;;
21754;SDS011;11039;50.028;19.938;2023-02-19T05:52:47;0.85;;;0.57;;
21754;SDS011;11039;50.028;19.938;2023-02-19T05:55:13;0.98;;;0.60;;
21754;SDS011;11039;50.028;19.938;2023-02-19T05:57:39;1.30;;;0.60;;
21754;SDS011;11039;50.028;19.938;2023-02-19T06:00:06;0.95;;;0.68;;
21754;SDS011;11039;50.028;19.938;2023-02-19T06:02:32;0.52;;;0.50;;
21754;SDS011;11039;50.028;19.938;2023-02-19T06:04:58;1.48;;;0.75;;
21754;SDS011;11039;50.028;19.938;2023-02-19T06:07:24;1.20;;;0.55;;
21754;SDS011;11039;50.028;19.938;2023-02-19T06:09:50;0.90;;;0.60;;
21754;SDS011;11039;50.028;19.938;2023-02-19T06:12:16;0.70;;;0.40;;
21754;SDS011;11039;50.028;19.938;2023-02-19T06:14:42;0.88;;;0.52;;
21754;SDS011;11039;50.028;19.938;2023-02-19T06:17:08;1.08;;;0.70;;
21754;SDS011;11039;50.028;19.938;2023-02-19T06:19:34;1.00;;;0.70;;
21754;SDS011;11039;50.028;19.938;2023-02-19T06:22:00;0.77;;;0.60;;
21754;SDS011;11039;50.028;19.938;2023-02-19T06:24:26;0.50;;;0.50;;
21754;SDS011;11039;50.028;19.938;2023-02-19T06:26:52;0.90;;;0.50;;
21754;SDS011;11039;50.028;19.938;2023-02-19T06:29:18;0.90;;;0.70;;
21754;SDS011;11039;50.028;19.938;2023-02-19T06:31:44;0.40;;;0.40;;
21754;SDS011;11039;50.028;19.938;2023-02-19T06:34:10;1.02;;;0.70;;
21754;SDS011;11039;50.028;19.938;2023-02-19T06:36:36;0.65;;;0.60;;
21754;SDS011;11039;50.028;19.938;2023-02-19T06:39:03;0.70;;;0.60;;
21754;SDS011;11039;50.028;19.938;2023-02-19T06:41:29;1.08;;;0.60;;
21754;SDS011;11039;50.028;19.938;2023-02-19T06:43:56;0.60;;;0.50;;
21754;SDS011;11039;50.028;19.938;2023-02-19T06:46:22;0.95;;;0.65;;
21754;SDS011;11039;50.028;19.938;2023-02-19T06:48:48;1.40;;;0.60;;
21754;SDS011;11039;50.028;19.938;2023-02-19T06:51:16;0.85;;;0.60;;
21754;SDS011;11039;50.028;19.938;2023-02-19T06:53:51;0.88;;;0.60;;
21754;SDS011;11039;50.028;19.938;2023-02-19T06:56:30;0.60;;;0.47;;
21754;SDS011;11039;50.028;19.938;2023-02-19T06:58:58;1.55;;;0.60;;
21754;SDS011;11039;50.028;19.938;2023-02-19T07:01:24;0.75;;;0.50;;
21754;SDS011;11039;50.028;19.938;2023-02-19T07:03:51;0.60;;;0.50;;
21754;SDS011;11039;50.028;19.938;2023-02-19T07:06:17;1.30;;;0.57;;
21754;SDS011;11039;50.028;19.938;2023-02-19T07:08:44;0.90;;;0.60;;
21754;SDS011;11039;50.028;19.938;2023-02-19T07:11:10;0.65;;;0.45;;
21754;SDS011;11039;50.028;19.938;2023-02-19T07:13:36;1.13;;;0.70;;
21754;SDS011;11039;50.028;19.938;2023-02-19T07:16:04;1.08;;;0.52;;
21754;SDS011;11039;50.028;19.938;2023-02-19T07:18:32;1.10;;;0.70;;
21754;SDS011;11039;50.028;19.938;2023-02-19T07:21:01;0.47;;;0.45;;
21754;SDS011;11039;50.028;19.938;2023-02-19T07:23:27;0.80;;;0.60;;
21754;SDS011;11039;50.028;19.938;2023-02-19T07:25:54;2.28;;;0.60;;
21754;SDS011;11039;50.028;19.938;2023-02-19T07:28:20;1.90;;;0.50;;
21754;SDS011;11039;50.028;19.938;2023-02-19T07:30:46;1.30;;;0.70;;
21754;SDS011;11039;50.028;19.938;2023-02-19T07:33:12;1.08;;;0.60;;
21754;SDS011;11039;50.028;19.938;2023-02-19T07:35:43;0.90;;;0.55;;
21754;SDS011;11039;50.028;19.938;2023-02-19T07:38:09;0.88;;;0.63;;
21754;SDS011;11039;50.028;19.938;2023-02-19T07:40:35;0.60;;;0.50;;
21754;SDS011;11039;50.028;19.938;2023-02-19T07:43:01;1.20;;;0.60;;
21754;SDS011;11039;50.028;19.938;2023-02-19T07:45:27;0.70;;;0.60;;
21754;SDS011;11039;50.028;19.938;2023-02-19T07:47:53;0.88;;;0.60;;
21754;SDS011;11039;50.028;19.938;2023-02-19T07:50:20;0.98;;;0.70;;
21754;SDS011;11039;50.028;19.938;2023-02-19T07:52:46;1.13;;;0.70;;
21754;SDS011;11039;50.028;19.938;2023-02-19T07:55:12;1.70;;;0.70;;
21754;SDS011;11039;50.028;19.938;2023-02-19T07:57:38;1.58;;;0.60;;
21754;SDS011;11039;50.028;19.938;2023-02-19T08:00:04;1.42;;;0.60;;
21754;SDS011;11039;50.028;19.938;2023-02-19T08:02:30;1.02;;;0.70;;
21754;SDS011;11039;50.028;19.938;2023-02-19T08:05:14;0.82;;;0.70;;
21754;SDS011;11039;50.028;19.938;2023-02-19T08:07:40;0.90;;;0.60;;
21754;SDS011;11039;50.028;19.938;2023-02-19T08:10:07;0.75;;;0.65;;
21754;SDS011;11039;50.028;19.938;2023-02-19T08:12:57;0.95;;;0.60;;
21754;SDS011;11039;50.028;19.938;2023-02-19T08:15:42;0.95;;;0.70;;
21754;SDS011;11039;50.028;19.938;2023-02-19T08:18:09;0.80;;;0.70;;
21754;SDS011;11039;50.028;19.938;2023-02-19T08:20:35;0.90;;;0.70;;
21754;SDS011;11039;50.028;19.938;2023-02-19T08:23:01;0.50;;;0.50;;
21754;SDS011;11039;50.028;19.938;2023-02-19T08:25:27;1.15;;;0.77;;
21754;SDS011;11039;50.028;19.938;2023-02-19T08:27:54;1.45;;;0.73;;
21754;SDS011;11039;50.028;19.938;2023-02-19T08:30:20;1.63;;;0.80;;
21754;SDS011;11039;50.028;19.938;2023-02-19T08:32:46;0.95;;;0.77;;
21754;SDS011;11039;50.028;19.938;2023-02-19T08:35:12;1.02;;;0.70;;
21754;SDS011;11039;50.028;19.938;2023-02-19T08:37:38;1.08;;;0.80;;
21754;SDS011;11039;50.028;19.938;2023-02-19T08:40:04;1.77;;;0.88;;
21754;SDS011;11039;50.028;19.938;2023-02-19T08:42:30;1.58;;;0.85;;
21754;SDS011;11039;50.028;19.938;2023-02-19T08:44:56;1.52;;;1.00;;
21754;SDS011;11039;50.028;19.938;2023-02-19T08:47:22;2.90;;;1.13;;
21754;SDS011;11039;50.028;19.938;2023-02-19T08:49:48;1.40;;;0.80;;
21754;SDS011;11039;50.028;19.938;2023-02-19T08:52:14;2.15;;;0.80;;
21754;SDS011;11039;50.028;19.938;2023-02-19T08:54:40;2.17;;;1.00;;
21754;SDS011;11039;50.028;19.938;2023-02-19T08:57:06;1.50;;;0.90;;
21754;SDS011;11039;50.028;19.938;2023-02-19T08:59:32;1.75;;;1.23;;
21754;SDS011;11039;50.028;19.938;2023-02-19T09:01:58;2.20;;;1.00;;
21754;SDS011;11039;50.028;19.938;2023-02-19T09:04:24;1.58;;;1.10;;
21754;SDS011;11039;50.028;19.938;2023-02-19T09:06:51;1.77;;;1.00;;
21754;SDS011;11039;50.028;19.938;2023-02-19T09:09:17;14.35;;;1.20;;
21754;SDS011;11039;50.028;19.938;2023-02-19T09:11:43;2.55;;;1.13;;
21754;SDS011;11039;50.028;19.938;2023-02-19T09:14:09;2.97;;;1.35;;
21754;SDS011;11039;50.028;19.938;2023-02-19T09:16:35;3.35;;;0.98;;
21754;SDS011;11039;50.028;19.938;2023-02-19T09:19:02;2.00;;;1.23;;
21754;SDS011;11039;50.028;19.938;2023-02-19T09:21:28;8.43;;;1.20;;
21754;SDS011;11039;50.028;19.938;2023-02-19T09:23:54;2.55;;;0.98;;
21754;SDS011;11039;50.028;19.938;2023-02-19T09:26:20;3.00;;;1.35;;
21754;SDS011;11039;50.028;19.938;2023-02-19T09:28:47;2.20;;;1.08;;
21754;SDS011;11039;50.028;19.938;2023-02-19T09:31:13;3.97;;;1.10;;
21754;SDS011;11039;50.028;19.938;2023-02-19T09:33:43;4.13;;;1.20;;
21754;SDS011;11039;50.028;19.938;2023-02-19T09:36:10;3.50;;;1.38;;
21754;SDS011;11039;50.028;19.938;2023-02-19T09:38:36;2.05;;;1.05;;
21754;SDS011;11039;50.028;19.938;2023-02-19T09:41:08;2.10;;;1.30;;
21754;SDS011;11039;50.028;19.938;2023-02-19T09:43:34;2.42;;;1.13;;
21754;SDS011;11039;50.028;19.938;2023-02-19T09:49:06;1.65;;;1.23;;
21754;SDS011;11039;50.028;19.938;2023-02-19T09:51:36;3.03;;;1.40;;
21754;SDS011;11039;50.028;19.938;2023-02-19T09:54:04;2.10;;;1.20;;
21754;SDS011;11039;50.028;19.938;2023-02-19T09:56:31;3.30;;;1.23;;
21754;SDS011;11039;50.028;19.938;2023-02-19T09:58:57;3.58;;;1.13;;
21754;SDS011;11039;50.028;19.938;2023-02-19T10:01:25;2.05;;;1.40;;
21754;SDS011;11039;50.028;19.938;2023-02-19T10:03:51;1.55;;;1.10;;
21754;SDS011;11039;50.028;19.938;2023-02-19T10:08:45;2.38;;;1.25;;
21754;SDS011;11039;50.028;19.938;2023-02-19T10:11:11;1.98;;;1.10;;
21754;SDS011;11039;50.028;19.938;2023-02-19T10:16:09;2.20;;;1.27;;
21754;SDS011;11039;50.028;19.938;2023-02-19T10:18:41;3.00;;;1.33;;
21754;SDS011;11039;50.028;19.938;2023-02-19T10:21:15;2.65;;;1.33;;
21754;SDS011;11039;50.028;19.938;2023-02-19T10:23:43;2.70;;;1.20;;
21754;SDS011;11039;50.028;19.938;2023-02-19T10:26:10;2.03;;;1.20;;
21754;SDS011;11039;50.028;19.938;2023-02-19T10:28:36;3.38;;;1.40;;
21754;SDS011;11039;50.028;19.938;2023-02-19T10:31:04;1.95;;;1.13;;
21754;SDS011;11039;50.028;19.938;2023-02-19T10:33:32;2.33;;;1.40;;
21754;SDS011;11039;50.028;19.938;2023-02-19T10:35:59;2.30;;;1.40;;
21754;SDS011;11039;50.028;19.938;2023-02-19T10:38:29;2.03;;;1.20;;
21754;SDS011;11039;50.028;19.938;2023-02-19T10:43:26;1.98;;;1.40;;
21754;SDS011;11039;50.028;19.938;2023-02-19T10:46:02;2.78;;;1.20;;
21754;SDS011;11039;50.028;19.938;2023-02-19T10:48:30;2.08;;;1.48;;
21754;SDS011;11039;50.028;19.938;2023-02-19T10:51:01;3.20;;;1.20;;
21754;SDS011;11039;50.028;19.938;2023-02-19T10:53:43;2.90;;;1.27;;
21754;SDS011;11039;50.028;19.938;2023-02-19T10:56:11;2.22;;;1.20;;
21754;SDS011;11039;50.028;19.938;2023-02-19T10:58:38;2.40;;;1.48;;
21754;SDS011;11039;50.028;19.938;2023-02-19T11:03:35;2.42;;;1.50;;
21754;SDS011;11039;50.028;19.938;2023-02-19T11:06:02;2.08;;;1.35;;
21754;SDS011;11039;50.028;19.938;2023-02-19T11:08:29;2.28;;;1.20;;
21754;SDS011;11039;50.028;19.938;2023-02-19T11:10:55;2.20;;;1.50;;
21754;SDS011;11039;50.028;19.938;2023-02-19T11:13:25;2.40;;;1.20;;
21754;SDS011;11039;50.028;19.938;2023-02-19T11:15:54;2.10;;;1.20;;
21754;SDS011;11039;50.028;19.938;2023-02-19T11:18:24;1.90;;;1.20;;
21754;SDS011;11039;50.028;19.938;2023-02-19T11:20:55;2.35;;;1.10;;
21754;SDS011;11039;50.028;19.938;2023-02-19T11:23:42;1.55;;;1.10;;
21754;SDS011;11039;50.028;19.938;2023-02-19T11:26:23;1.55;;;1.10;;
21754;SDS011;11039;50.028;19.938;2023-02-19T11:28:57;2.40;;;1.40;;
21754;SDS011;11039;50.028;19.938;2023-02-19T11:31:24;1.80;;;1.20;;
21754;SDS011;11039;50.028;19.938;2023-02-19T11:36:30;1.30;;;1.20;;
21754;SDS011;11039;50.028;19.938;2023-02-19T11:38:57;1.80;;;1.33;;
21754;SDS011;11039;50.028;19.938;2023-02-19T11:43:58;2.17;;;1.20;;
21754;SDS011;11039;50.028;19.938;2023-02-19T11:46:29;2.28;;;1.10;;
21754;SDS011;11039;50.028;19.938;2023-02-19T11:56:38;1.60;;;1.20;;
21754;SDS011;11039;50.028;19.938;2023-02-19T11:59:16;1.58;;;1.10;;
21754;SDS011;11039;50.028;19.938;2023-02-19T12:02:01;1.58;;;1.10;;
21754;SDS011;11039;50.028;19.938;2023-02-19T12:04:34;1.40;;;0.93;;
21754;SDS011;11039;50.028;19.938;2023-02-19T12:14:59;1.35;;;1.00;;
21754;SDS011;11039;50.028;19.938;2023-02-19T12:38:32;2.40;;;1.30;;
21754;SDS011;11039;50.028;19.938;2023-02-19T12:43:28;4.85;;;1.35;;
21754;SDS011;11039;50.028;19.938;2023-02-19T12:46:11;3.42;;;1.13;;
21754;SDS011;11039;50.028;19.938;2023-02-19T12:51:16;4.05;;;1.23;;
21754;SDS011;11039;50.028;19.938;2023-02-19T12:53:52;2.75;;;1.27;;
21754;SDS011;11039;50.028;19.938;2023-02-19T12:56:20;2.15;;;1.20;;
21754;SDS011;11039;50.028;19.938;2023-02-19T12:58:48;3.60;;;1.25;;
21754;SDS011;11039;50.028;19.938;2023-02-19T13:01:19;4.10;;;1.23;;
21754;SDS011;11039;50.028;19.938;2023-02-19T13:03:49;3.40;;;1.02;;
21754;SDS011;11039;50.028;19.938;2023-02-19T13:08:51;2.17;;;1.27;;
21754;SDS011;11039;50.028;19.938;2023-02-19T13:11:21;3.00;;;1.35;;
21754;SDS011;11039;50.028;19.938;2023-02-19T13:13:48;1.98;;;1.05;;
21754;SDS011;11039;50.028;19.938;2023-02-19T13:16:17;3.20;;;1.58;;
21754;SDS011;11039;50.028;19.938;2023-02-19T13:21:13;1.60;;;0.50;;
21754;SDS011;11039;50.028;19.938;2023-02-19T13:23:59;1.50;;;0.50;;
21754;SDS011;11039;50.028;19.938;2023-02-19T13:37:16;0.70;;;0.45;;
21754;SDS011;11039;50.028;19.938;2023-02-19T13:39:46;0.93;;;0.43;;
21754;SDS011;11039;50.028;19.938;2023-02-19T13:42:49;0.55;;;0.40;;
21754;SDS011;11039;50.028;19.938;2023-02-19T13:45:06;1.60;;;0.40;;
21754;SDS011;11039;50.028;19.938;2023-02-19T13:47:48;3.92;;;0.77;;
21754;SDS011;11039;50.028;19.938;2023-02-19T13:50:30;0.52;;;0.30;;
21754;SDS011;11039;50.028;19.938;2023-02-19T13:52:57;0.52;;;0.43;;
21754;SDS011;11039;50.028;19.938;2023-02-19T14:00:54;0.60;;;0.40;;
21754;SDS011;11039;50.028;19.938;2023-02-19T14:09:36;0.65;;;0.38;;
21754;SDS011;11039;50.028;19.938;2023-02-19T14:11:08;0.52;;;0.30;;
21754;SDS011;11039;50.028;19.938;2023-02-19T14:16:50;0.32;;;0.30;;
21754;SDS011;11039;50.028;19.938;2023-02-19T14:21:54;0.45;;;0.32;;
21754;SDS011;11039;50.028;19.938;2023-02-19T14:24:20;0.57;;;0.32;;
21754;SDS011;11039;50.028;19.938;2023-02-19T14:26:47;1.23;;;0.30;;
21754;SDS011;11039;50.028;19.938;2023-02-19T14:29:13;0.70;;;0.43;;
21754;SDS011;11039;50.028;19.938;2023-02-19T14:31:42;0.55;;;0.43;;
21754;SDS011;11039;50.028;19.938;2023-02-19T14:34:18;0.50;;;0.40;;
21754;SDS011;11039;50.028;19.938;2023-02-19T14:36:57;0.40;;;0.40;;
21754;SDS011;11039;50.028;19.938;2023-02-19T14:39:28;0.50;;;0.35;;
21754;SDS011;11039;50.028;19.938;2023-02-19T14:41:56;0.43;;;0.30;;
21754;SDS011;11039;50.028;19.938;2023-02-19T14:44:27;0.77;;;0.50;;
21754;SDS011;11039;50.028;19.938;2023-02-19T14:46:58;0.70;;;0.40;;
21754;SDS011;11039;50.028;19.938;2023-02-19T14:54:43;0.43;;;0.40;;
21754;SDS011;11039;50.028;19.938;2023-02-19T14:57:26;0.70;;;0.50;;
21754;SDS011;11039;50.028;19.938;2023-02-19T15:00:00;1.08;;;0.50;;
21754;SDS011;11039;50.028;19.938;2023-02-19T15:02:27;0.90;;;0.40;;
21754;SDS011;11039;50.028;19.938;2023-02-19T15:04:53;0.70;;;0.50;;
21754;SDS011;11039;50.028;19.938;2023-02-19T15:07:30;0.63;;;0.52;;
21754;SDS011;11039;50.028;19.938;2023-02-19T15:09:58;0.50;;;0.30;;
21754;SDS011;11039;50.028;19.938;2023-02-19T15:12:27;1.35;;;0.57;;
21754;SDS011;11039;50.028;19.938;2023-02-19T15:14:55;0.63;;;0.50;;
21754;SDS011;11039;50.028;19.938;2023-02-19T15:17:25;0.60;;;0.50;;
21754;SDS011;11039;50.028;19.938;2023-02-19T15:19:51;0.55;;;0.40;;
21754;SDS011;11039;50.028;19.938;2023-02-19T15:22:20;0.40;;;0.38;;
21754;SDS011;11039;50.028;19.938;2023-02-19T15:24:46;0.65;;;0.50;;
21754;SDS011;11039;50.028;19.938;2023-02-19T15:27:19;0.40;;;0.30;;
21754;SDS011;11039;50.028;19.938;2023-02-19T15:29:46;0.60;;;0.40;;
21754;SDS011;11039;50.028;19.938;2023-02-19T15:32:17;1.55;;;0.57;;
21754;SDS011;11039;50.028;19.938;2023-02-19T15:34:51;1.13;;;0.40;;
21754;SDS011;11039;50.028;19.938;2023-02-19T15:37:18;0.40;;;0.30;;
21754;SDS011;11039;50.028;19.938;2023-02-19T15:39:44;0.30;;;0.30;;
21754;SDS011;11039;50.028;19.938;2023-02-19T15:42:16;0.70;;;0.43;;
21754;SDS011;11039;50.028;19.938;2023-02-19T15:44:45;0.50;;;0.40;;
21754;SDS011;11039;50.028;19.938;2023-02-19T15:49:57;0.65;;;0.40;;
21754;SDS011;11039;50.028;19.938;2023-02-19T15:52:27;0.77;;;0.50;;
21754;SDS011;11039;50.028;19.938;2023-02-19T15:55:00;0.68;;;0.47;;
21754;SDS011;11039;50.028;19.938;2023-02-19T15:57:29;0.50;;;0.30;;
21754;SDS011;11039;50.028;19.938;2023-02-19T16:00:04;0.73;;;0.40;;
21754;SDS011;11039;50.028;19.938;2023-02-19T16:02:34;0.40;;;0.38;;
21754;SDS011;11039;50.028;19.938;2023-02-19T16:05:00;1.05;;;0.47;;
21754;SDS011;11039;50.028;19.938;2023-02-19T16:07:35;0.90;;;0.40;;
21754;SDS011;11039;50.028;19.938;2023-02-19T16:10:20;0.65;;;0.20;;
21754;SDS011;11039;50.028;19.938;2023-02-19T16:12:53;0.73;;;0.30;;
21754;SDS011;11039;50.028;19.938;2023-02-19T16:15:20;0.47;;;0.30;;
21754;SDS011;11039;50.028;19.938;2023-02-19T16:17:46;0.68;;;0.30;;
21754;SDS011;11039;50.028;19.938;2023-02-19T16:20:16;0.52;;;0.40;;
21754;SDS011;11039;50.028;19.938;2023-02-19T16:22:44;1.27;;;0.35;;
21754;SDS011;11039;50.028;19.938;2023-02-19T16:25:20;1.80;;;0.50;;
21754;SDS011;11039;50.028;19.938;2023-02-19T16:27:48;0.40;;;0.30;;
21754;SDS011;11039;50.028;19.938;2023-02-19T16:35:36;0.70;;;0.40;;
21754;SDS011;11039;50.028;19.938;2023-02-19T16:38:10;0.30;;;0.28;;
21754;SDS011;11039;50.028;19.938;2023-02-19T16:45:42;2.53;;;0.38;;
21754;SDS011;11039;50.028;19.938;2023-02-19T16:48:09;1.20;;;0.40;;
21754;SDS011;11039;50.028;19.938;2023-02-19T16:50:35;1.58;;;0.35;;
21754;SDS011;11039;50.028;19.938;2023-02-19T16:53:01;0.63;;;0.32;;
21754;SDS011;11039;50.028;19.938;2023-02-19T16:55:28;0.73;;;0.40;;
21754;SDS011;11039;50.028;19.938;2023-02-19T16:57:56;1.00;;;0.40;;
21754;SDS011;11039;50.028;19.938;2023-02-19T17:00:23;0.68;;;0.38;;
21754;SDS011;11039;50.028;19.938;2023-02-19T17:02:50;0.70;;;0.40;;
21754;SDS011;11039;50.028;19.938;2023-02-19T17:05:17;0.57;;;0.40;;